sensor_id;sensor_type;location;lat;lon;timestamp;P1;durP1;ratioP1;P2;durP2;ratioP2
29732;SDS011;16643;43.158;25.302;2023-03-03T00:01:28;65.72;;;34.80;;
29732;SDS011;16643;43.158;25.302;2023-03-03T00:03:56;62.75;;;34.72;;
29732;SDS011;16643;43.158;25.302;2023-03-03T00:06:22;63.70;;;34.25;;
29732;SDS011;16643;43.158;25.302;2023-03-03T00:08:49;66.68;;;35.53;;
29732;SDS011;16643;43.158;25.302;2023-03-03T00:11:15;69.38;;;34.08;;
29732;SDS011;16643;43.158;25.302;2023-03-03T00:13:51;68.13;;;34.95;;
29732;SDS011;16643;43.158;25.302;2023-03-03T00:16:23;45.63;;;24.52;;
29732;SDS011;16643;43.158;25.302;2023-03-03T00:18:52;65.30;;;34.90;;
29732;SDS011;16643;43.158;25.302;2023-03-03T00:21:23;69.75;;;35.03;;
29732;SDS011;16643;43.158;25.302;2023-03-03T00:26:46;71.07;;;38.10;;
29732;SDS011;16643;43.158;25.302;2023-03-03T00:29:36;66.05;;;34.80;;
29732;SDS011;16643;43.158;25.302;2023-03-03T00:32:24;69.00;;;34.53;;
29732;SDS011;16643;43.158;25.302;2023-03-03T00:35:20;71.65;;;35.13;;
29732;SDS011;16643;43.158;25.302;2023-03-03T00:37:47;75.75;;;36.97;;
29732;SDS011;16643;43.158;25.302;2023-03-03T00:40:20;74.07;;;37.15;;
29732;SDS011;16643;43.158;25.302;2023-03-03T00:42:55;71.00;;;35.83;;
29732;SDS011;16643;43.158;25.302;2023-03-03T00:47:57;75.18;;;36.47;;
29732;SDS011;16643;43.158;25.302;2023-03-03T00:50:41;71.93;;;35.38;;
29732;SDS011;16643;43.158;25.302;2023-03-03T00:53:11;80.25;;;37.33;;
29732;SDS011;16643;43.158;25.302;2023-03-03T00:55:41;69.97;;;36.10;;
29732;SDS011;16643;43.158;25.302;2023-03-03T00:58:07;73.50;;;37.83;;
29732;SDS011;16643;43.158;25.302;2023-03-03T01:00:33;75.88;;;35.60;;
29732;SDS011;16643;43.158;25.302;2023-03-03T01:03:01;73.40;;;38.08;;
29732;SDS011;16643;43.158;25.302;2023-03-03T01:05:29;78.25;;;38.63;;
29732;SDS011;16643;43.158;25.302;2023-03-03T01:07:55;77.95;;;36.58;;
29732;SDS011;16643;43.158;25.302;2023-03-03T01:10:20;71.88;;;37.75;;
29732;SDS011;16643;43.158;25.302;2023-03-03T01:12:46;80.65;;;38.90;;
29732;SDS011;16643;43.158;25.302;2023-03-03T01:15:13;73.20;;;37.28;;
29732;SDS011;16643;43.158;25.302;2023-03-03T01:17:39;72.20;;;35.72;;
29732;SDS011;16643;43.158;25.302;2023-03-03T01:20:06;75.28;;;35.60;;
29732;SDS011;16643;43.158;25.302;2023-03-03T01:22:35;73.15;;;37.70;;
29732;SDS011;16643;43.158;25.302;2023-03-03T01:25:01;80.20;;;37.38;;
29732;SDS011;16643;43.158;25.302;2023-03-03T01:27:28;76.97;;;38.17;;
29732;SDS011;16643;43.158;25.302;2023-03-03T01:29:55;77.13;;;36.92;;
29732;SDS011;16643;43.158;25.302;2023-03-03T01:32:21;76.97;;;39.15;;
29732;SDS011;16643;43.158;25.302;2023-03-03T01:34:48;75.05;;;36.20;;
29732;SDS011;16643;43.158;25.302;2023-03-03T01:37:14;80.38;;;38.67;;
29732;SDS011;16643;43.158;25.302;2023-03-03T01:39:39;81.07;;;37.80;;
29732;SDS011;16643;43.158;25.302;2023-03-03T01:42:05;74.95;;;37.40;;
29732;SDS011;16643;43.158;25.302;2023-03-03T01:44:31;75.57;;;38.00;;
29732;SDS011;16643;43.158;25.302;2023-03-03T01:52:21;72.47;;;36.85;;
29732;SDS011;16643;43.158;25.302;2023-03-03T01:57:27;67.53;;;33.67;;
29732;SDS011;16643;43.158;25.302;2023-03-03T01:59:57;75.10;;;38.00;;
29732;SDS011;16643;43.158;25.302;2023-03-03T02:02:25;72.25;;;37.10;;
29732;SDS011;16643;43.158;25.302;2023-03-03T02:04:52;72.28;;;36.60;;
29732;SDS011;16643;43.158;25.302;2023-03-03T02:07:19;74.13;;;37.63;;
29732;SDS011;16643;43.158;25.302;2023-03-03T02:12:19;81.03;;;38.70;;
29732;SDS011;16643;43.158;25.302;2023-03-03T02:14:50;73.95;;;37.97;;
29732;SDS011;16643;43.158;25.302;2023-03-03T02:17:16;71.68;;;36.00;;
29732;SDS011;16643;43.158;25.302;2023-03-03T02:19:45;74.47;;;37.47;;
29732;SDS011;16643;43.158;25.302;2023-03-03T02:22:20;79.95;;;38.40;;
29732;SDS011;16643;43.158;25.302;2023-03-03T02:24:58;79.85;;;37.45;;
29732;SDS011;16643;43.158;25.302;2023-03-03T02:27:27;70.40;;;36.10;;
29732;SDS011;16643;43.158;25.302;2023-03-03T02:29:56;73.88;;;36.53;;
29732;SDS011;16643;43.158;25.302;2023-03-03T02:32:22;68.97;;;34.97;;
29732;SDS011;16643;43.158;25.302;2023-03-03T02:34:49;77.38;;;37.75;;
29732;SDS011;16643;43.158;25.302;2023-03-03T02:37:16;77.85;;;37.08;;
29732;SDS011;16643;43.158;25.302;2023-03-03T02:39:43;72.07;;;37.20;;
29732;SDS011;16643;43.158;25.302;2023-03-03T02:44:50;72.75;;;37.00;;
29732;SDS011;16643;43.158;25.302;2023-03-03T02:47:16;75.15;;;39.00;;
29732;SDS011;16643;43.158;25.302;2023-03-03T02:49:42;76.90;;;36.83;;
29732;SDS011;16643;43.158;25.302;2023-03-03T02:52:08;75.15;;;36.30;;
29732;SDS011;16643;43.158;25.302;2023-03-03T02:54:36;75.63;;;38.30;;
29732;SDS011;16643;43.158;25.302;2023-03-03T02:57:03;76.32;;;38.30;;
29732;SDS011;16643;43.158;25.302;2023-03-03T02:59:29;76.22;;;37.95;;
29732;SDS011;16643;43.158;25.302;2023-03-03T03:01:55;74.13;;;36.75;;
29732;SDS011;16643;43.158;25.302;2023-03-03T03:04:21;73.65;;;37.22;;
29732;SDS011;16643;43.158;25.302;2023-03-03T03:06:49;87.78;;;38.58;;
29732;SDS011;16643;43.158;25.302;2023-03-03T03:09:15;79.10;;;36.97;;
29732;SDS011;16643;43.158;25.302;2023-03-03T03:11:42;85.28;;;39.53;;
29732;SDS011;16643;43.158;25.302;2023-03-03T03:14:08;91.20;;;39.67;;
29732;SDS011;16643;43.158;25.302;2023-03-03T03:16:35;96.90;;;42.03;;
29732;SDS011;16643;43.158;25.302;2023-03-03T03:19:01;86.97;;;40.50;;
29732;SDS011;16643;43.158;25.302;2023-03-03T03:21:28;90.65;;;40.75;;
29732;SDS011;16643;43.158;25.302;2023-03-03T03:23:55;85.03;;;41.22;;
29732;SDS011;16643;43.158;25.302;2023-03-03T03:26:21;89.63;;;40.83;;
29732;SDS011;16643;43.158;25.302;2023-03-03T03:28:47;93.97;;;41.85;;
29732;SDS011;16643;43.158;25.302;2023-03-03T03:31:13;97.13;;;39.88;;
29732;SDS011;16643;43.158;25.302;2023-03-03T03:33:40;91.60;;;41.55;;
29732;SDS011;16643;43.158;25.302;2023-03-03T03:36:05;99.75;;;39.28;;
29732;SDS011;16643;43.158;25.302;2023-03-03T03:38:32;101.57;;;41.45;;
29732;SDS011;16643;43.158;25.302;2023-03-03T03:40:59;93.03;;;41.00;;
29732;SDS011;16643;43.158;25.302;2023-03-03T03:43:24;98.45;;;41.08;;
29732;SDS011;16643;43.158;25.302;2023-03-03T03:45:50;94.00;;;39.45;;
29732;SDS011;16643;43.158;25.302;2023-03-03T03:48:16;92.20;;;42.20;;
29732;SDS011;16643;43.158;25.302;2023-03-03T03:50:44;96.95;;;39.55;;
29732;SDS011;16643;43.158;25.302;2023-03-03T03:53:11;94.03;;;40.17;;
29732;SDS011;16643;43.158;25.302;2023-03-03T03:55:37;92.75;;;40.63;;
29732;SDS011;16643;43.158;25.302;2023-03-03T03:58:03;95.10;;;41.28;;
29732;SDS011;16643;43.158;25.302;2023-03-03T04:00:29;111.15;;;45.33;;
29732;SDS011;16643;43.158;25.302;2023-03-03T04:02:54;105.78;;;44.53;;
29732;SDS011;16643;43.158;25.302;2023-03-03T04:05:20;92.63;;;39.90;;
29732;SDS011;16643;43.158;25.302;2023-03-03T04:07:46;92.30;;;42.80;;
29732;SDS011;16643;43.158;25.302;2023-03-03T04:10:11;91.57;;;41.45;;
29732;SDS011;16643;43.158;25.302;2023-03-03T04:12:37;98.28;;;43.65;;
29732;SDS011;16643;43.158;25.302;2023-03-03T04:15:10;85.80;;;38.95;;
29732;SDS011;16643;43.158;25.302;2023-03-03T04:17:37;78.22;;;36.97;;
29732;SDS011;16643;43.158;25.302;2023-03-03T04:20:04;75.60;;;38.03;;
29732;SDS011;16643;43.158;25.302;2023-03-03T04:22:31;82.45;;;38.35;;
29732;SDS011;16643;43.158;25.302;2023-03-03T04:25:01;80.72;;;40.03;;
29732;SDS011;16643;43.158;25.302;2023-03-03T04:27:32;101.68;;;51.30;;
29732;SDS011;16643;43.158;25.302;2023-03-03T04:29:59;125.35;;;68.07;;
29732;SDS011;16643;43.158;25.302;2023-03-03T04:32:25;95.25;;;43.80;;
29732;SDS011;16643;43.158;25.302;2023-03-03T04:34:50;96.22;;;47.53;;
29732;SDS011;16643;43.158;25.302;2023-03-03T04:37:16;90.40;;;45.03;;
29732;SDS011;16643;43.158;25.302;2023-03-03T04:39:42;97.88;;;45.75;;
29732;SDS011;16643;43.158;25.302;2023-03-03T04:42:07;94.70;;;43.53;;
29732;SDS011;16643;43.158;25.302;2023-03-03T04:44:33;101.55;;;46.85;;
29732;SDS011;16643;43.158;25.302;2023-03-03T04:46:59;97.78;;;46.53;;
29732;SDS011;16643;43.158;25.302;2023-03-03T04:49:24;97.40;;;45.05;;
29732;SDS011;16643;43.158;25.302;2023-03-03T04:51:50;112.57;;;54.03;;
29732;SDS011;16643;43.158;25.302;2023-03-03T04:54:15;98.97;;;47.60;;
29732;SDS011;16643;43.158;25.302;2023-03-03T04:56:41;112.30;;;47.65;;
29732;SDS011;16643;43.158;25.302;2023-03-03T04:59:07;99.68;;;46.45;;
29732;SDS011;16643;43.158;25.302;2023-03-03T05:01:33;95.15;;;45.58;;
29732;SDS011;16643;43.158;25.302;2023-03-03T05:03:58;96.00;;;47.47;;
29732;SDS011;16643;43.158;25.302;2023-03-03T05:06:24;97.75;;;46.67;;
29732;SDS011;16643;43.158;25.302;2023-03-03T05:08:49;87.78;;;42.63;;
29732;SDS011;16643;43.158;25.302;2023-03-03T05:11:15;95.82;;;44.15;;
29732;SDS011;16643;43.158;25.302;2023-03-03T05:13:41;97.78;;;44.83;;
29732;SDS011;16643;43.158;25.302;2023-03-03T05:16:06;97.68;;;43.17;;
29732;SDS011;16643;43.158;25.302;2023-03-03T05:18:32;94.63;;;43.85;;
29732;SDS011;16643;43.158;25.302;2023-03-03T05:20:58;97.43;;;43.75;;
29732;SDS011;16643;43.158;25.302;2023-03-03T05:23:23;90.45;;;42.78;;
29732;SDS011;16643;43.158;25.302;2023-03-03T05:25:50;105.40;;;48.13;;
29732;SDS011;16643;43.158;25.302;2023-03-03T05:28:16;127.68;;;58.00;;
29732;SDS011;16643;43.158;25.302;2023-03-03T05:30:42;112.93;;;54.30;;
29732;SDS011;16643;43.158;25.302;2023-03-03T05:33:09;98.63;;;46.58;;
29732;SDS011;16643;43.158;25.302;2023-03-03T05:35:37;100.10;;;45.20;;
29732;SDS011;16643;43.158;25.302;2023-03-03T05:38:03;100.53;;;48.25;;
29732;SDS011;16643;43.158;25.302;2023-03-03T05:40:28;99.25;;;44.78;;
29732;SDS011;16643;43.158;25.302;2023-03-03T05:42:54;97.95;;;45.75;;
29732;SDS011;16643;43.158;25.302;2023-03-03T05:45:20;93.32;;;44.15;;
29732;SDS011;16643;43.158;25.302;2023-03-03T05:47:46;90.82;;;40.92;;
29732;SDS011;16643;43.158;25.302;2023-03-03T05:50:12;91.53;;;44.10;;
29732;SDS011;16643;43.158;25.302;2023-03-03T05:52:38;90.38;;;43.45;;
29732;SDS011;16643;43.158;25.302;2023-03-03T05:55:04;94.93;;;45.80;;
29732;SDS011;16643;43.158;25.302;2023-03-03T05:57:30;98.03;;;43.60;;
29732;SDS011;16643;43.158;25.302;2023-03-03T05:59:56;106.05;;;45.28;;
29732;SDS011;16643;43.158;25.302;2023-03-03T06:02:22;92.93;;;43.63;;
29732;SDS011;16643;43.158;25.302;2023-03-03T06:04:47;100.45;;;45.00;;
29732;SDS011;16643;43.158;25.302;2023-03-03T06:07:13;97.07;;;43.75;;
29732;SDS011;16643;43.158;25.302;2023-03-03T06:09:39;96.13;;;44.55;;
29732;SDS011;16643;43.158;25.302;2023-03-03T06:12:05;96.05;;;44.83;;
29732;SDS011;16643;43.158;25.302;2023-03-03T06:14:31;106.60;;;48.08;;
29732;SDS011;16643;43.158;25.302;2023-03-03T06:16:56;112.55;;;51.95;;
29732;SDS011;16643;43.158;25.302;2023-03-03T06:19:22;89.35;;;41.88;;
29732;SDS011;16643;43.158;25.302;2023-03-03T06:21:48;110.75;;;51.75;;
29732;SDS011;16643;43.158;25.302;2023-03-03T06:24:13;106.97;;;48.88;;
29732;SDS011;16643;43.158;25.302;2023-03-03T06:26:39;108.40;;;45.58;;
29732;SDS011;16643;43.158;25.302;2023-03-03T06:29:05;103.93;;;45.13;;
29732;SDS011;16643;43.158;25.302;2023-03-03T06:31:31;102.80;;;45.50;;
29732;SDS011;16643;43.158;25.302;2023-03-03T06:33:57;102.20;;;47.30;;
29732;SDS011;16643;43.158;25.302;2023-03-03T06:36:23;103.90;;;46.00;;
29732;SDS011;16643;43.158;25.302;2023-03-03T06:38:50;107.10;;;47.65;;
29732;SDS011;16643;43.158;25.302;2023-03-03T06:41:16;117.57;;;49.92;;
29732;SDS011;16643;43.158;25.302;2023-03-03T06:43:41;109.88;;;48.92;;
29732;SDS011;16643;43.158;25.302;2023-03-03T06:46:07;111.45;;;45.67;;
29732;SDS011;16643;43.158;25.302;2023-03-03T06:48:33;104.45;;;46.03;;
29732;SDS011;16643;43.158;25.302;2023-03-03T06:50:59;107.93;;;42.78;;
29732;SDS011;16643;43.158;25.302;2023-03-03T06:55:55;109.53;;;51.40;;
29732;SDS011;16643;43.158;25.302;2023-03-03T06:58:22;102.00;;;44.63;;
29732;SDS011;16643;43.158;25.302;2023-03-03T07:00:55;110.47;;;45.25;;
29732;SDS011;16643;43.158;25.302;2023-03-03T07:03:22;117.20;;;46.15;;
29732;SDS011;16643;43.158;25.302;2023-03-03T07:05:50;107.55;;;45.55;;
29732;SDS011;16643;43.158;25.302;2023-03-03T07:08:18;113.38;;;43.15;;
29732;SDS011;16643;43.158;25.302;2023-03-03T07:13:19;100.78;;;39.25;;
29732;SDS011;16643;43.158;25.302;2023-03-03T07:15:47;109.45;;;43.95;;
29732;SDS011;16643;43.158;25.302;2023-03-03T07:18:26;110.18;;;42.70;;
29732;SDS011;16643;43.158;25.302;2023-03-03T07:21:01;96.88;;;41.45;;
29732;SDS011;16643;43.158;25.302;2023-03-03T07:23:37;92.95;;;40.00;;
29732;SDS011;16643;43.158;25.302;2023-03-03T07:26:13;91.65;;;40.13;;
29732;SDS011;16643;43.158;25.302;2023-03-03T07:28:43;90.32;;;39.22;;
29732;SDS011;16643;43.158;25.302;2023-03-03T07:31:16;97.30;;;40.28;;
29732;SDS011;16643;43.158;25.302;2023-03-03T07:33:53;84.80;;;38.03;;
29732;SDS011;16643;43.158;25.302;2023-03-03T07:36:33;92.38;;;39.97;;
29732;SDS011;16643;43.158;25.302;2023-03-03T07:44:41;102.10;;;42.10;;
29732;SDS011;16643;43.158;25.302;2023-03-03T07:49:55;93.75;;;39.78;;
29732;SDS011;16643;43.158;25.302;2023-03-03T07:52:25;99.85;;;40.15;;
29732;SDS011;16643;43.158;25.302;2023-03-03T07:55:19;97.05;;;40.85;;
29732;SDS011;16643;43.158;25.302;2023-03-03T08:03:07;104.47;;;42.00;;
29732;SDS011;16643;43.158;25.302;2023-03-03T08:05:48;99.35;;;41.17;;
29732;SDS011;16643;43.158;25.302;2023-03-03T08:08:20;93.18;;;38.20;;
29732;SDS011;16643;43.158;25.302;2023-03-03T08:10:56;90.28;;;36.28;;
29732;SDS011;16643;43.158;25.302;2023-03-03T08:18:51;128.40;;;54.97;;
29732;SDS011;16643;43.158;25.302;2023-03-03T08:21:18;121.55;;;51.63;;
29732;SDS011;16643;43.158;25.302;2023-03-03T08:23:45;105.20;;;42.60;;
29732;SDS011;16643;43.158;25.302;2023-03-03T08:26:13;95.63;;;38.87;;
29732;SDS011;16643;43.158;25.302;2023-03-03T08:28:39;104.38;;;44.42;;
29732;SDS011;16643;43.158;25.302;2023-03-03T08:31:04;113.07;;;43.83;;
29732;SDS011;16643;43.158;25.302;2023-03-03T08:33:30;110.28;;;44.40;;
29732;SDS011;16643;43.158;25.302;2023-03-03T08:35:56;105.88;;;46.03;;
29732;SDS011;16643;43.158;25.302;2023-03-03T08:38:22;106.43;;;44.65;;
29732;SDS011;16643;43.158;25.302;2023-03-03T08:40:48;119.03;;;48.40;;
29732;SDS011;16643;43.158;25.302;2023-03-03T08:43:15;128.75;;;56.45;;
29732;SDS011;16643;43.158;25.302;2023-03-03T08:45:46;116.90;;;43.88;;
29732;SDS011;16643;43.158;25.302;2023-03-03T08:48:13;110.10;;;43.55;;
29732;SDS011;16643;43.158;25.302;2023-03-03T08:50:39;101.97;;;42.00;;
29732;SDS011;16643;43.158;25.302;2023-03-03T08:53:06;99.97;;;39.63;;
29732;SDS011;16643;43.158;25.302;2023-03-03T08:55:32;100.60;;;39.38;;
29732;SDS011;16643;43.158;25.302;2023-03-03T08:57:58;102.82;;;38.70;;
29732;SDS011;16643;43.158;25.302;2023-03-03T09:00:24;101.68;;;38.42;;
29732;SDS011;16643;43.158;25.302;2023-03-03T09:02:50;107.00;;;41.53;;
29732;SDS011;16643;43.158;25.302;2023-03-03T09:05:17;99.60;;;40.65;;
29732;SDS011;16643;43.158;25.302;2023-03-03T09:07:43;95.68;;;38.85;;
29732;SDS011;16643;43.158;25.302;2023-03-03T09:10:12;123.55;;;48.22;;
29732;SDS011;16643;43.158;25.302;2023-03-03T09:12:41;103.38;;;39.85;;
29732;SDS011;16643;43.158;25.302;2023-03-03T09:15:14;107.00;;;37.58;;
29732;SDS011;16643;43.158;25.302;2023-03-03T09:17:44;93.05;;;38.42;;
29732;SDS011;16643;43.158;25.302;2023-03-03T09:20:30;100.38;;;37.20;;
29732;SDS011;16643;43.158;25.302;2023-03-03T09:22:57;99.85;;;37.75;;
29732;SDS011;16643;43.158;25.302;2023-03-03T09:25:33;105.35;;;38.92;;
29732;SDS011;16643;43.158;25.302;2023-03-03T09:28:01;95.40;;;35.80;;
29732;SDS011;16643;43.158;25.302;2023-03-03T09:30:37;97.15;;;40.40;;
29732;SDS011;16643;43.158;25.302;2023-03-03T09:33:18;98.35;;;41.22;;
29732;SDS011;16643;43.158;25.302;2023-03-03T09:38:47;93.68;;;37.22;;
29732;SDS011;16643;43.158;25.302;2023-03-03T09:46:56;97.35;;;38.33;;
29732;SDS011;16643;43.158;25.302;2023-03-03T09:55:38;103.35;;;40.50;;
29732;SDS011;16643;43.158;25.302;2023-03-03T10:01:21;92.13;;;38.08;;
29732;SDS011;16643;43.158;25.302;2023-03-03T10:15:46;101.47;;;39.92;;
29732;SDS011;16643;43.158;25.302;2023-03-03T10:21:24;90.28;;;36.95;;
29732;SDS011;16643;43.158;25.302;2023-03-03T10:24:13;95.03;;;37.40;;
29732;SDS011;16643;43.158;25.302;2023-03-03T10:38:12;111.38;;;44.47;;
29732;SDS011;16643;43.158;25.302;2023-03-03T10:46:25;115.47;;;45.00;;
29732;SDS011;16643;43.158;25.302;2023-03-03T10:57:06;105.45;;;41.67;;
29732;SDS011;16643;43.158;25.302;2023-03-03T11:07:38;110.05;;;43.95;;
29732;SDS011;16643;43.158;25.302;2023-03-03T11:13:26;101.55;;;40.53;;
29732;SDS011;16643;43.158;25.302;2023-03-03T11:21:46;113.78;;;46.10;;
29732;SDS011;16643;43.158;25.302;2023-03-03T11:32:35;80.80;;;31.35;;
29732;SDS011;16643;43.158;25.302;2023-03-03T11:38:05;116.53;;;45.42;;
29732;SDS011;16643;43.158;25.302;2023-03-03T11:43:41;116.97;;;45.50;;
29732;SDS011;16643;43.158;25.302;2023-03-03T11:46:15;107.60;;;43.40;;
29732;SDS011;16643;43.158;25.302;2023-03-03T11:51:42;100.45;;;41.03;;
29732;SDS011;16643;43.158;25.302;2023-03-03T11:54:18;101.55;;;38.35;;
29732;SDS011;16643;43.158;25.302;2023-03-03T11:57:15;112.10;;;42.28;;
29732;SDS011;16643;43.158;25.302;2023-03-03T11:59:47;91.93;;;38.78;;
29732;SDS011;16643;43.158;25.302;2023-03-03T12:02:30;99.50;;;39.97;;
29732;SDS011;16643;43.158;25.302;2023-03-03T12:05:06;98.28;;;38.22;;
29732;SDS011;16643;43.158;25.302;2023-03-03T12:19:08;94.18;;;38.30;;
29732;SDS011;16643;43.158;25.302;2023-03-03T12:22:19;91.22;;;36.55;;
29732;SDS011;16643;43.158;25.302;2023-03-03T12:39:44;87.55;;;34.30;;
29732;SDS011;16643;43.158;25.302;2023-03-03T12:48:05;77.32;;;34.22;;
29732;SDS011;16643;43.158;25.302;2023-03-03T12:56:03;75.30;;;32.80;;
29732;SDS011;16643;43.158;25.302;2023-03-03T13:01:32;73.97;;;32.38;;
29732;SDS011;16643;43.158;25.302;2023-03-03T13:07:18;84.40;;;33.17;;
29732;SDS011;16643;43.158;25.302;2023-03-03T13:12:56;74.70;;;31.48;;
29732;SDS011;16643;43.158;25.302;2023-03-03T13:15:33;81.65;;;31.10;;
29732;SDS011;16643;43.158;25.302;2023-03-03T13:23:34;74.30;;;31.90;;
29732;SDS011;16643;43.158;25.302;2023-03-03T13:26:47;80.88;;;31.10;;
29732;SDS011;16643;43.158;25.302;2023-03-03T13:31:47;80.63;;;33.13;;
29732;SDS011;16643;43.158;25.302;2023-03-03T13:34:22;82.22;;;32.47;;
29732;SDS011;16643;43.158;25.302;2023-03-03T13:37:03;71.20;;;31.17;;
29732;SDS011;16643;43.158;25.302;2023-03-03T13:39:42;80.70;;;31.73;;
29732;SDS011;16643;43.158;25.302;2023-03-03T13:44:43;71.20;;;30.15;;
29732;SDS011;16643;43.158;25.302;2023-03-03T13:47:14;72.50;;;31.48;;
29732;SDS011;16643;43.158;25.302;2023-03-03T13:52:22;69.97;;;31.83;;
29732;SDS011;16643;43.158;25.302;2023-03-03T13:57:57;75.18;;;31.15;;
29732;SDS011;16643;43.158;25.302;2023-03-03T14:00:48;75.13;;;31.83;;
29732;SDS011;16643;43.158;25.302;2023-03-03T14:03:54;70.90;;;29.27;;
29732;SDS011;16643;43.158;25.302;2023-03-03T14:06:21;73.68;;;29.75;;
29732;SDS011;16643;43.158;25.302;2023-03-03T14:08:59;66.15;;;28.85;;
29732;SDS011;16643;43.158;25.302;2023-03-03T14:11:45;73.25;;;27.98;;
29732;SDS011;16643;43.158;25.302;2023-03-03T14:17:37;73.90;;;29.42;;
29732;SDS011;16643;43.158;25.302;2023-03-03T14:23:01;66.68;;;28.75;;
29732;SDS011;16643;43.158;25.302;2023-03-03T14:28:18;64.75;;;29.95;;
29732;SDS011;16643;43.158;25.302;2023-03-03T14:30:46;66.82;;;27.08;;
29732;SDS011;16643;43.158;25.302;2023-03-03T14:35:48;52.88;;;24.48;;
29732;SDS011;16643;43.158;25.302;2023-03-03T14:38:24;64.18;;;27.85;;
29732;SDS011;16643;43.158;25.302;2023-03-03T14:41:33;59.67;;;25.08;;
29732;SDS011;16643;43.158;25.302;2023-03-03T14:44:01;54.65;;;24.55;;
29732;SDS011;16643;43.158;25.302;2023-03-03T14:49:33;64.35;;;27.13;;
29732;SDS011;16643;43.158;25.302;2023-03-03T14:52:10;67.45;;;26.92;;
29732;SDS011;16643;43.158;25.302;2023-03-03T14:54:46;56.25;;;26.33;;
29732;SDS011;16643;43.158;25.302;2023-03-03T14:57:17;61.13;;;28.67;;
29732;SDS011;16643;43.158;25.302;2023-03-03T14:59:55;62.47;;;28.42;;
29732;SDS011;16643;43.158;25.302;2023-03-03T15:02:26;65.22;;;27.40;;
29732;SDS011;16643;43.158;25.302;2023-03-03T15:05:14;70.68;;;31.05;;
29732;SDS011;16643;43.158;25.302;2023-03-03T15:07:48;73.70;;;28.90;;
29732;SDS011;16643;43.158;25.302;2023-03-03T15:10:36;96.82;;;41.08;;
29732;SDS011;16643;43.158;25.302;2023-03-03T15:15:41;81.78;;;31.58;;
29732;SDS011;16643;43.158;25.302;2023-03-03T15:18:13;76.22;;;33.20;;
29732;SDS011;16643;43.158;25.302;2023-03-03T15:23:11;76.40;;;35.30;;
29732;SDS011;16643;43.158;25.302;2023-03-03T15:25:46;64.45;;;31.17;;
29732;SDS011;16643;43.158;25.302;2023-03-03T15:31:02;70.53;;;30.00;;
29732;SDS011;16643;43.158;25.302;2023-03-03T15:36:22;82.75;;;34.67;;
29732;SDS011;16643;43.158;25.302;2023-03-03T15:39:07;82.15;;;33.85;;
29732;SDS011;16643;43.158;25.302;2023-03-03T15:41:42;92.30;;;36.63;;
29732;SDS011;16643;43.158;25.302;2023-03-03T15:44:13;79.90;;;33.85;;
29732;SDS011;16643;43.158;25.302;2023-03-03T15:52:04;82.45;;;36.72;;
29732;SDS011;16643;43.158;25.302;2023-03-03T16:00:35;85.78;;;39.05;;
29732;SDS011;16643;43.158;25.302;2023-03-03T16:03:25;83.05;;;37.40;;
29732;SDS011;16643;43.158;25.302;2023-03-03T16:06:06;79.70;;;36.50;;
29732;SDS011;16643;43.158;25.302;2023-03-03T16:11:20;85.38;;;35.97;;
29732;SDS011;16643;43.158;25.302;2023-03-03T16:16:38;80.03;;;34.88;;
29732;SDS011;16643;43.158;25.302;2023-03-03T16:19:22;84.70;;;36.33;;
29732;SDS011;16643;43.158;25.302;2023-03-03T16:25:06;81.90;;;33.90;;
29732;SDS011;16643;43.158;25.302;2023-03-03T16:27:58;79.80;;;35.10;;
29732;SDS011;16643;43.158;25.302;2023-03-03T16:30:31;76.32;;;31.80;;
29732;SDS011;16643;43.158;25.302;2023-03-03T16:36:03;78.10;;;34.65;;
29732;SDS011;16643;43.158;25.302;2023-03-03T16:41:54;79.82;;;36.25;;
29732;SDS011;16643;43.158;25.302;2023-03-03T16:50:24;96.35;;;48.78;;
29732;SDS011;16643;43.158;25.302;2023-03-03T16:55:35;84.00;;;38.83;;
29732;SDS011;16643;43.158;25.302;2023-03-03T16:58:09;87.35;;;40.67;;
29732;SDS011;16643;43.158;25.302;2023-03-03T17:01:07;91.32;;;38.25;;
29732;SDS011;16643;43.158;25.302;2023-03-03T17:03:57;86.18;;;39.35;;
29732;SDS011;16643;43.158;25.302;2023-03-03T17:12:05;84.65;;;40.05;;
29732;SDS011;16643;43.158;25.302;2023-03-03T17:17:25;85.60;;;39.97;;
29732;SDS011;16643;43.158;25.302;2023-03-03T17:20:10;85.72;;;39.78;;
29732;SDS011;16643;43.158;25.302;2023-03-03T17:25:21;84.50;;;39.10;;
29732;SDS011;16643;43.158;25.302;2023-03-03T17:31:25;90.07;;;39.88;;
29732;SDS011;16643;43.158;25.302;2023-03-03T17:34:29;98.57;;;42.65;;
29732;SDS011;16643;43.158;25.302;2023-03-03T17:37:13;85.18;;;37.35;;
29732;SDS011;16643;43.158;25.302;2023-03-03T17:45:34;88.45;;;39.17;;
29732;SDS011;16643;43.158;25.302;2023-03-03T17:55:08;115.80;;;51.08;;
29732;SDS011;16643;43.158;25.302;2023-03-03T17:57:51;105.35;;;47.78;;
29732;SDS011;16643;43.158;25.302;2023-03-03T18:06:48;108.93;;;46.72;;
29732;SDS011;16643;43.158;25.302;2023-03-03T18:36:01;132.60;;;62.03;;
29732;SDS011;16643;43.158;25.302;2023-03-03T18:46:54;87.15;;;42.38;;
29732;SDS011;16643;43.158;25.302;2023-03-03T18:49:01;76.82;;;38.47;;
29732;SDS011;16643;43.158;25.302;2023-03-03T18:56:44;91.93;;;44.70;;
29732;SDS011;16643;43.158;25.302;2023-03-03T19:04:43;95.35;;;43.88;;
29732;SDS011;16643;43.158;25.302;2023-03-03T19:10:00;85.28;;;38.33;;
29732;SDS011;16643;43.158;25.302;2023-03-03T19:20:38;130.80;;;61.38;;
29732;SDS011;16643;43.158;25.302;2023-03-03T19:23:12;115.47;;;57.80;;
29732;SDS011;16643;43.158;25.302;2023-03-03T19:25:41;89.47;;;39.58;;
29732;SDS011;16643;43.158;25.302;2023-03-03T19:53:28;79.40;;;38.22;;
29732;SDS011;16643;43.158;25.302;2023-03-03T19:56:09;94.95;;;41.50;;
29732;SDS011;16643;43.158;25.302;2023-03-03T20:15:18;71.03;;;33.88;;
29732;SDS011;16643;43.158;25.302;2023-03-03T20:20:50;71.40;;;32.60;;
29732;SDS011;16643;43.158;25.302;2023-03-03T20:23:38;67.75;;;32.28;;
29732;SDS011;16643;43.158;25.302;2023-03-03T20:26:27;66.90;;;33.20;;
29732;SDS011;16643;43.158;25.302;2023-03-03T20:31:40;63.85;;;31.63;;
29732;SDS011;16643;43.158;25.302;2023-03-03T20:36:56;63.20;;;28.80;;
29732;SDS011;16643;43.158;25.302;2023-03-03T20:39:37;58.27;;;26.63;;
29732;SDS011;16643;43.158;25.302;2023-03-03T20:51:10;63.35;;;30.63;;
29732;SDS011;16643;43.158;25.302;2023-03-03T20:53:44;66.65;;;31.05;;
29732;SDS011;16643;43.158;25.302;2023-03-03T20:58:53;65.10;;;26.85;;
29732;SDS011;16643;43.158;25.302;2023-03-03T21:07:12;57.38;;;25.13;;
29732;SDS011;16643;43.158;25.302;2023-03-03T21:09:49;60.08;;;28.75;;
29732;SDS011;16643;43.158;25.302;2023-03-03T21:12:34;60.85;;;27.63;;
29732;SDS011;16643;43.158;25.302;2023-03-03T21:18:21;62.42;;;29.00;;
29732;SDS011;16643;43.158;25.302;2023-03-03T21:20:51;65.57;;;28.90;;
29732;SDS011;16643;43.158;25.302;2023-03-03T21:23:16;65.47;;;28.17;;
29732;SDS011;16643;43.158;25.302;2023-03-03T21:25:51;61.30;;;26.92;;
29732;SDS011;16643;43.158;25.302;2023-03-03T21:28:19;64.82;;;25.80;;